createdAt,value
2023-04-19T00:01:32.754Z,7.22
2023-04-19T00:03:59.878Z,7.50
2023-04-19T00:06:30.440Z,6.65
2023-04-19T00:08:57.679Z,6.28
2023-04-19T00:11:25.629Z,6.65
2023-04-19T00:13:52.684Z,6.70
2023-04-19T00:16:19.626Z,7.53
2023-04-19T00:18:46.816Z,7.45
2023-04-19T00:21:13.748Z,6.95
2023-04-19T00:23:40.663Z,7.75
2023-04-19T00:26:07.562Z,7.93
2023-04-19T00:28:35.091Z,7.57
2023-04-19T00:31:02.061Z,7.75
2023-04-19T00:33:29.131Z,8.15
2023-04-19T00:35:57.598Z,8.10
2023-04-19T00:38:24.625Z,7.82
2023-04-19T00:40:51.529Z,8.40
2023-04-19T00:43:19.788Z,7.63
2023-04-19T00:45:48.089Z,7.68
2023-04-19T00:48:15.650Z,8.00
2023-04-19T00:50:44.960Z,8.57
2023-04-19T00:53:12.320Z,8.50
2023-04-19T00:55:39.641Z,8.15
2023-04-19T00:58:08.544Z,7.90
2023-04-19T01:00:37.024Z,7.93
2023-04-19T01:03:04.289Z,7.75
2023-04-19T01:05:31.530Z,9.32
2023-04-19T01:07:58.454Z,8.10
2023-04-19T01:10:25.739Z,7.35
2023-04-19T01:12:52.728Z,8.38
2023-04-19T01:15:20.191Z,8.88
2023-04-19T01:17:49.813Z,8.18
2023-04-19T01:20:16.899Z,8.63
2023-04-19T01:22:44.884Z,10.48
2023-04-19T01:25:12.424Z,8.13
2023-04-19T01:27:40.556Z,7.60
2023-04-19T01:30:08.512Z,7.82
2023-04-19T01:32:35.455Z,8.95
2023-04-19T01:35:02.514Z,8.43
2023-04-19T01:37:30.632Z,7.97
2023-04-19T01:39:57.539Z,8.23
2023-04-19T01:42:24.530Z,8.52
2023-04-19T01:44:51.464Z,8.77
2023-04-19T01:47:19.836Z,8.05
2023-04-19T01:49:46.834Z,8.18
2023-04-19T01:52:16.311Z,8.88
2023-04-19T01:54:43.261Z,8.65
2023-04-19T01:57:10.220Z,8.07
2023-04-19T01:59:37.314Z,8.02
2023-04-19T02:02:08.455Z,8.35
2023-04-19T02:04:35.857Z,7.25
2023-04-19T02:07:02.781Z,8.15
2023-04-19T02:09:29.794Z,8.02
2023-04-19T02:11:56.759Z,8.38
2023-04-19T02:14:23.661Z,7.15
2023-04-19T02:16:50.662Z,7.43
2023-04-19T02:19:18.110Z,7.78
2023-04-19T02:21:45.516Z,7.30
2023-04-19T02:24:14.898Z,6.35
2023-04-19T02:26:42.717Z,7.07
2023-04-19T02:29:09.974Z,7.35
2023-04-19T02:31:38.805Z,8.05
2023-04-19T02:34:09.401Z,7.28
2023-04-19T02:36:36.332Z,7.45
2023-04-19T02:39:03.335Z,7.25
2023-04-19T02:41:30.307Z,6.28
2023-04-19T02:43:57.230Z,6.65
2023-04-19T02:46:24.348Z,7.07
2023-04-19T02:48:51.436Z,6.82
2023-04-19T02:51:18.392Z,6.10
2023-04-19T02:53:45.442Z,6.93
2023-04-19T02:56:12.413Z,6.40
2023-04-19T02:58:39.385Z,7.28
2023-04-19T03:01:07.152Z,6.38
2023-04-19T03:03:34.396Z,7.13
2023-04-19T03:06:02.087Z,6.53
2023-04-19T03:08:30.629Z,6.40
2023-04-19T03:10:58.135Z,5.47
2023-04-19T03:13:25.494Z,6.40
2023-04-19T03:15:53.041Z,7.05
2023-04-19T03:18:22.690Z,6.10
2023-04-19T03:20:50.595Z,7.03
2023-04-19T03:23:17.567Z,7.60
2023-04-19T03:25:46.444Z,5.93
2023-04-19T03:28:30.204Z,6.20
2023-04-19T03:31:23.252Z,6.68
2023-04-19T03:33:53.416Z,5.60
2023-04-19T03:36:26.732Z,6.03
2023-04-19T03:38:53.737Z,6.65
2023-04-19T03:41:25.438Z,5.22
2023-04-19T03:44:01.580Z,5.97
2023-04-19T03:46:31.656Z,6.03
2023-04-19T03:48:59.836Z,5.72
2023-04-19T03:51:28.284Z,5.38
2023-04-19T03:53:55.200Z,5.55
2023-04-19T03:56:22.316Z,5.78
2023-04-19T03:58:51.856Z,5.28
2023-04-19T04:01:20.773Z,6.50
2023-04-19T04:03:48.839Z,5.15
2023-04-19T04:06:16.219Z,5.97
2023-04-19T04:08:43.310Z,5.25
2023-04-19T04:11:10.613Z,5.68
2023-04-19T04:13:37.797Z,5.40
2023-04-19T04:16:12.785Z,5.43
2023-04-19T04:18:40.338Z,4.90
2023-04-19T04:21:10.588Z,6.05
2023-04-19T04:23:41.804Z,4.65
2023-04-19T04:26:14.090Z,5.10
2023-04-19T04:29:06.587Z,5.57
2023-04-19T04:31:36.201Z,5.93
2023-04-19T04:34:03.934Z,5.43
2023-04-19T04:36:33.983Z,5.93
2023-04-19T04:39:02.558Z,5.35
2023-04-19T04:41:31.546Z,5.28
2023-04-19T04:44:12.103Z,5.07
2023-04-19T04:46:41.278Z,5.47
2023-04-19T04:49:10.191Z,6.47
2023-04-19T04:51:37.618Z,6.15
2023-04-19T04:54:05.719Z,5.50
2023-04-19T04:56:32.900Z,6.32
2023-04-19T04:59:00.209Z,6.00
2023-04-19T05:01:32.439Z,6.13
2023-04-19T05:03:59.566Z,5.82
2023-04-19T05:06:27.207Z,5.57
2023-04-19T05:08:54.341Z,5.55
2023-04-19T05:11:30.260Z,5.00
2023-04-19T05:13:57.247Z,5.07
2023-04-19T05:16:24.516Z,5.20
2023-04-19T05:18:51.572Z,4.85
2023-04-19T05:21:18.929Z,4.57
2023-04-19T05:23:45.965Z,4.90
2023-04-19T05:26:15.615Z,4.25
2023-04-19T05:28:45.791Z,4.72
2023-04-19T05:31:21.194Z,4.82
2023-04-19T05:34:05.451Z,5.00
2023-04-19T05:36:33.197Z,4.63
2023-04-19T05:39:00.351Z,4.50
2023-04-19T05:41:27.299Z,4.35
2023-04-19T05:43:54.267Z,4.25
2023-04-19T05:46:21.821Z,4.25
2023-04-19T05:48:48.832Z,4.28
2023-04-19T05:51:28.322Z,3.85
2023-04-19T05:54:07.289Z,3.33
2023-04-19T05:56:34.363Z,3.83
2023-04-19T05:59:01.563Z,3.45
2023-04-19T06:01:28.579Z,3.83
2023-04-19T06:03:56.002Z,3.30
2023-04-19T06:06:24.474Z,3.08
2023-04-19T06:08:54.444Z,3.08
2023-04-19T06:11:28.937Z,2.90
2023-04-19T06:14:02.629Z,3.40
2023-04-19T06:16:29.703Z,2.97
2023-04-19T06:18:57.183Z,2.40
2023-04-19T06:21:24.172Z,3.03
2023-04-19T06:23:51.106Z,2.97
2023-04-19T06:26:18.052Z,3.05
2023-04-19T06:28:45.017Z,2.25
2023-04-19T06:31:12.444Z,2.15
2023-04-19T06:33:39.597Z,2.40
2023-04-19T06:36:06.963Z,2.92
2023-04-19T06:38:33.916Z,2.53
2023-04-19T06:41:00.900Z,2.55
2023-04-19T06:43:27.850Z,2.78
2023-04-19T06:45:59.397Z,2.65
2023-04-19T06:48:26.509Z,2.67
2023-04-19T06:50:54.022Z,2.30
2023-04-19T06:53:21.203Z,2.90
2023-04-19T06:55:48.356Z,2.38
2023-04-19T06:58:15.374Z,2.50
2023-04-19T07:00:42.309Z,2.42
2023-04-19T07:03:09.450Z,2.08
2023-04-19T07:05:36.772Z,2.42
2023-04-19T07:08:03.827Z,2.58
2023-04-19T07:10:30.831Z,2.40
2023-04-19T07:12:57.732Z,2.00
2023-04-19T07:15:24.988Z,2.63
2023-04-19T07:17:52.103Z,2.10
2023-04-19T07:20:19.201Z,1.90
2023-04-19T07:22:46.124Z,2.47
2023-04-19T07:25:13.997Z,1.98
2023-04-19T07:27:40.926Z,2.15
2023-04-19T07:30:08.669Z,2.15
2023-04-19T07:32:36.336Z,2.63
2023-04-19T07:35:03.655Z,2.55
2023-04-19T07:37:30.776Z,1.98
2023-04-19T07:39:57.710Z,2.33
2023-04-19T07:42:25.731Z,2.38
2023-04-19T07:44:52.646Z,1.95
2023-04-19T07:47:19.574Z,1.83
2023-04-19T07:49:46.528Z,2.17
2023-04-19T07:52:13.507Z,2.03
2023-04-19T07:54:40.539Z,1.77
2023-04-19T07:57:07.517Z,1.42
2023-04-19T07:59:34.550Z,1.10
2023-04-19T08:02:01.855Z,1.30
2023-04-19T08:04:29.200Z,0.85
2023-04-19T08:06:56.660Z,1.52
2023-04-19T08:09:23.673Z,1.00
2023-04-19T08:11:50.874Z,1.50
2023-04-19T08:14:30.945Z,1.13
2023-04-19T08:17:19.407Z,1.02
2023-04-19T08:19:50.427Z,1.13
2023-04-19T08:22:18.233Z,1.10
2023-04-19T08:24:45.231Z,0.90
2023-04-19T08:27:12.419Z,1.13
2023-04-19T08:29:39.351Z,0.80
2023-04-19T08:32:07.297Z,0.82
2023-04-19T08:34:38.885Z,0.77
2023-04-19T08:37:07.358Z,1.00
2023-04-19T08:39:35.183Z,0.80
2023-04-19T08:42:13.349Z,1.00
2023-04-19T08:45:25.500Z,0.95
2023-04-19T08:47:58.677Z,1.15
2023-04-19T08:50:33.302Z,1.15
2023-04-19T08:53:16.333Z,1.30
2023-04-19T08:56:06.978Z,1.08
2023-04-19T08:58:57.058Z,1.33
2023-04-19T09:01:34.489Z,1.25
2023-04-19T09:04:27.191Z,1.00
2023-04-19T09:06:55.489Z,1.30
2023-04-19T09:11:59.184Z,1.25
2023-04-19T09:14:28.060Z,0.93
2023-04-19T09:17:12.332Z,0.80
2023-04-19T09:19:50.330Z,1.10
2023-04-19T09:22:18.325Z,0.95
2023-04-19T09:25:22.705Z,1.55
2023-04-19T09:27:37.287Z,0.93
2023-04-19T09:30:06.684Z,1.15
2023-04-19T09:32:49.078Z,0.88
2023-04-19T09:35:16.647Z,0.85
2023-04-19T09:40:24.655Z,1.10
2023-04-19T09:45:31.130Z,0.95
2023-04-19T09:48:09.520Z,0.93
2023-04-19T09:51:05.029Z,1.00
2023-04-19T09:53:34.901Z,0.95
2023-04-19T09:56:03.374Z,0.85
2023-04-19T10:01:13.581Z,0.70
2023-04-19T10:03:45.414Z,0.88
2023-04-19T10:06:37.342Z,1.05
2023-04-19T10:09:05.416Z,0.65
2023-04-19T10:11:38.730Z,1.10
2023-04-19T10:14:10.257Z,1.08
2023-04-19T10:16:39.081Z,1.10
2023-04-19T10:19:11.673Z,1.10
2023-04-19T10:21:40.293Z,1.27
2023-04-19T10:24:09.014Z,1.40
2023-04-19T10:27:12.128Z,1.20
2023-04-19T10:30:00.060Z,1.08
2023-04-19T10:32:41.961Z,1.35
2023-04-19T10:35:10.054Z,1.40
2023-04-19T10:37:41.988Z,1.25
2023-04-19T10:40:09.844Z,1.30
2023-04-19T10:43:15.167Z,1.48
2023-04-19T10:45:42.171Z,1.20
2023-04-19T10:48:35.601Z,1.55
2023-04-19T10:51:16.645Z,1.27
2023-04-19T10:53:51.033Z,1.10
2023-04-19T10:56:34.758Z,1.67
2023-04-19T10:59:07.908Z,1.85
2023-04-19T11:01:44.259Z,1.60
2023-04-19T11:04:13.868Z,1.40
2023-04-19T11:06:53.005Z,1.10
2023-04-19T11:09:42.359Z,1.60
2023-04-19T11:12:15.719Z,1.90
2023-04-19T11:14:46.033Z,1.70
2023-04-19T11:17:25.441Z,1.50
2023-04-19T11:20:03.478Z,1.45
2023-04-19T11:22:34.420Z,1.35
2023-04-19T11:25:10.596Z,1.40
2023-04-19T11:27:39.419Z,1.48
2023-04-19T11:30:23.092Z,1.70
2023-04-19T11:32:55.432Z,1.65
2023-04-19T11:35:27.538Z,1.33
2023-04-19T11:37:56.535Z,1.67
2023-04-19T11:40:26.227Z,1.40
2023-04-19T11:42:56.700Z,1.25
2023-04-19T11:45:35.575Z,1.60
2023-04-19T11:48:07.363Z,1.38
2023-04-19T11:50:45.829Z,1.45
2023-04-19T11:53:19.078Z,1.73
2023-04-19T11:55:52.067Z,2.10
2023-04-19T11:58:29.887Z,1.55
2023-04-19T12:01:26.845Z,1.40
2023-04-19T12:03:56.561Z,1.55
2023-04-19T12:06:33.898Z,1.45
2023-04-19T12:09:09.329Z,1.90
2023-04-19T12:11:49.881Z,1.52
2023-04-19T12:14:21.403Z,1.77
2023-04-19T12:17:11.982Z,1.90
2023-04-19T12:19:47.582Z,1.90
2023-04-19T12:24:52.304Z,1.10
2023-04-19T12:27:19.448Z,2.05
2023-04-19T12:29:46.395Z,2.20
2023-04-19T12:32:16.019Z,1.60
2023-04-19T12:34:43.234Z,2.17
2023-04-19T12:37:10.178Z,2.00
2023-04-19T12:39:37.101Z,1.77
2023-04-19T12:42:06.005Z,1.42
2023-04-19T12:44:33.012Z,1.45
2023-04-19T12:46:59.994Z,1.33
2023-04-19T12:49:27.306Z,1.50
2023-04-19T12:51:57.029Z,1.70
2023-04-19T12:54:24.390Z,1.45
2023-04-19T12:56:51.667Z,1.40
2023-04-19T12:59:19.002Z,1.85
2023-04-19T13:01:46.188Z,1.30
2023-04-19T13:04:13.450Z,1.30
2023-04-19T13:06:40.958Z,1.27
2023-04-19T13:09:14.321Z,1.13
2023-04-19T13:11:42.145Z,1.27
2023-04-19T13:14:09.147Z,1.00
2023-04-19T13:16:36.135Z,1.20
2023-04-19T13:19:03.125Z,1.85
2023-04-19T13:21:30.538Z,1.35
2023-04-19T13:24:00.628Z,1.60
2023-04-19T13:26:28.542Z,1.20
2023-04-19T13:28:56.367Z,1.75
2023-04-19T13:31:23.478Z,1.35
2023-04-19T13:33:50.559Z,1.40
2023-04-19T13:36:17.987Z,1.33
2023-04-19T13:38:46.636Z,1.77
2023-04-19T13:41:14.118Z,1.40
2023-04-19T13:43:41.315Z,1.83
2023-04-19T13:46:08.339Z,1.33
2023-04-19T13:48:35.324Z,1.73
2023-04-19T13:51:02.483Z,1.45
2023-04-19T13:53:29.677Z,1.48
2023-04-19T13:55:57.084Z,1.48
2023-04-19T13:58:27.095Z,1.17
2023-04-19T14:00:54.200Z,1.10
2023-04-19T14:03:23.015Z,2.00
2023-04-19T14:05:50.301Z,1.35
2023-04-19T14:08:17.263Z,1.70
2023-04-19T14:10:44.400Z,1.67
2023-04-19T14:13:11.464Z,1.27
2023-04-19T14:15:38.568Z,1.38
2023-04-19T14:18:05.579Z,1.80
2023-04-19T14:20:32.620Z,1.55
2023-04-19T14:23:00.313Z,1.77
2023-04-19T14:25:27.475Z,1.08
2023-04-19T14:27:54.392Z,1.67
2023-04-19T14:30:21.419Z,1.50
2023-04-19T14:32:48.466Z,1.90
2023-04-19T14:35:15.788Z,1.90
2023-04-19T14:37:42.816Z,1.80
2023-04-19T14:40:11.149Z,1.67
2023-04-19T14:42:38.328Z,1.40
2023-04-19T14:45:06.611Z,1.45
2023-04-19T14:47:33.791Z,1.70
2023-04-19T14:50:00.810Z,2.03
2023-04-19T14:52:27.750Z,2.15
2023-04-19T14:54:54.761Z,1.38
2023-04-19T14:57:21.756Z,2.13
2023-04-19T14:59:48.672Z,1.30
2023-04-19T15:02:15.670Z,1.80
2023-04-19T15:04:42.886Z,2.30
2023-04-19T15:07:11.061Z,1.80
2023-04-19T15:09:38.276Z,1.52
2023-04-19T15:12:05.789Z,2.00
2023-04-19T15:14:32.845Z,2.13
2023-04-19T15:17:00.058Z,2.00
2023-04-19T15:19:28.193Z,2.05
2023-04-19T15:21:55.264Z,2.05
2023-04-19T15:24:22.271Z,2.20
2023-04-19T15:26:49.215Z,1.90
2023-04-19T15:29:16.471Z,1.95
2023-04-19T15:31:43.741Z,1.75
2023-04-19T15:34:10.696Z,2.15
2023-04-19T15:36:37.764Z,2.60
2023-04-19T15:39:04.911Z,1.60
2023-04-19T15:41:32.101Z,2.15
2023-04-19T15:43:59.058Z,1.70
2023-04-19T15:46:26.051Z,1.70
2023-04-19T15:48:53.118Z,2.00
2023-04-19T15:51:20.215Z,1.80
2023-04-19T15:53:47.206Z,1.55
2023-04-19T15:56:14.242Z,1.90
2023-04-19T15:58:42.239Z,1.50
2023-04-19T16:01:13.176Z,1.83
2023-04-19T16:03:41.458Z,1.58
2023-04-19T16:06:08.647Z,1.73
2023-04-19T16:08:36.050Z,1.60
2023-04-19T16:11:03.462Z,1.42
2023-04-19T16:13:31.546Z,2.00
2023-04-19T16:15:58.782Z,1.55
2023-04-19T16:18:25.888Z,1.50
2023-04-19T16:20:54.640Z,1.30
2023-04-19T16:23:22.415Z,1.50
2023-04-19T16:25:49.491Z,1.63
2023-04-19T16:28:16.526Z,1.83
2023-04-19T16:30:45.804Z,1.75
2023-04-19T16:33:12.797Z,1.50
2023-04-19T16:35:39.900Z,1.33
2023-04-19T16:38:07.091Z,1.77
2023-04-19T16:40:34.225Z,1.65
2023-04-19T16:43:01.573Z,1.60
2023-04-19T16:45:28.668Z,1.23
2023-04-19T16:47:55.940Z,1.85
2023-04-19T16:50:23.122Z,1.83
2023-04-19T16:52:50.182Z,1.88
2023-04-19T16:55:17.145Z,1.30
2023-04-19T16:57:44.130Z,1.20
2023-04-19T17:00:13.306Z,1.20
2023-04-19T17:02:40.460Z,1.20
2023-04-19T17:05:08.156Z,1.40
2023-04-19T17:07:35.327Z,1.15
2023-04-19T17:10:02.283Z,1.70
2023-04-19T17:12:29.242Z,0.90
2023-04-19T17:14:56.302Z,0.98
2023-04-19T17:17:24.515Z,1.63
2023-04-19T17:19:51.665Z,1.33
2023-04-19T17:22:18.631Z,1.30
2023-04-19T17:24:45.633Z,1.08
2023-04-19T17:27:12.659Z,1.10
2023-04-19T17:29:39.734Z,1.20
2023-04-19T17:32:08.065Z,1.42
2023-04-19T17:34:36.919Z,1.20
2023-04-19T17:37:04.293Z,1.27
2023-04-19T17:39:31.259Z,1.33
2023-04-19T17:41:58.368Z,1.80
2023-04-19T17:44:25.922Z,1.25
2023-04-19T17:46:52.935Z,1.10
2023-04-19T17:49:21.170Z,1.10
2023-04-19T17:51:48.769Z,0.98
2023-04-19T17:54:16.308Z,1.30
2023-04-19T17:56:43.395Z,1.23
2023-04-19T17:59:10.501Z,1.27
2023-04-19T18:01:38.122Z,1.52
2023-04-19T18:04:05.702Z,1.50
2023-04-19T18:06:32.898Z,1.30
2023-04-19T18:09:00.505Z,1.10
2023-04-19T18:11:28.644Z,1.27
2023-04-19T18:13:55.890Z,1.58
2023-04-19T18:16:23.035Z,1.30
2023-04-19T18:18:50.475Z,1.50
2023-04-19T18:21:18.555Z,1.38
2023-04-19T18:23:45.768Z,1.65
2023-04-19T18:26:12.837Z,1.30
2023-04-19T18:28:40.326Z,1.45
2023-04-19T18:31:08.360Z,1.30
2023-04-19T18:33:35.457Z,1.77
2023-04-19T18:36:02.454Z,1.63
2023-04-19T18:38:29.446Z,1.83
2023-04-19T18:40:56.528Z,1.88
2023-04-19T18:43:24.727Z,1.83
2023-04-19T18:45:58.045Z,1.88
2023-04-19T18:48:28.156Z,1.67
2023-04-19T18:50:57.086Z,1.52
2023-04-19T18:53:28.510Z,1.52
2023-04-19T18:56:00.369Z,1.60
2023-04-19T18:58:28.218Z,1.88
2023-04-19T19:00:56.790Z,2.13
2023-04-19T19:05:55.592Z,1.58
2023-04-19T19:08:22.798Z,1.73
2023-04-19T19:11:14.237Z,1.70
2023-04-19T19:13:36.948Z,1.73
2023-04-19T19:16:05.670Z,1.80
2023-04-19T19:18:32.728Z,1.83
2023-04-19T19:21:00.285Z,2.20
2023-04-19T19:23:35.481Z,1.90
2023-04-19T19:28:31.171Z,1.70
2023-04-19T19:30:58.261Z,1.67
2023-04-19T19:33:28.356Z,2.30
2023-04-19T19:35:55.738Z,1.92
2023-04-19T19:38:22.756Z,2.53
2023-04-19T19:43:19.665Z,2.42
2023-04-19T19:45:46.792Z,2.15
2023-04-19T19:48:13.777Z,2.00
2023-04-19T19:53:11.033Z,2.20
2023-04-19T19:55:38.031Z,2.08
2023-04-19T20:00:45.073Z,2.15
2023-04-19T20:03:14.629Z,1.73
2023-04-19T20:05:41.957Z,2.15
2023-04-19T20:08:12.815Z,1.98
2023-04-19T20:10:42.470Z,2.78
2023-04-19T20:13:09.515Z,3.22
2023-04-19T20:15:37.946Z,2.03
2023-04-19T20:18:05.801Z,1.90
2023-04-19T20:20:32.877Z,1.90
2023-04-19T20:22:59.860Z,1.95
2023-04-19T20:25:27.022Z,1.45
2023-04-19T20:27:54.329Z,1.38
2023-04-19T20:30:21.468Z,1.88
2023-04-19T20:32:50.309Z,1.77
2023-04-19T20:35:18.080Z,1.60
2023-04-19T20:37:47.812Z,3.65
2023-04-19T20:40:16.225Z,1.70
2023-04-19T20:42:44.221Z,2.00
2023-04-19T20:45:14.236Z,2.20
2023-04-19T20:47:42.677Z,2.10
2023-04-19T20:50:10.432Z,1.70
2023-04-19T20:52:37.469Z,1.95
2023-04-19T20:55:04.884Z,2.17
2023-04-19T20:57:31.857Z,3.08
2023-04-19T20:59:59.601Z,2.03
2023-04-19T21:02:27.346Z,2.38
2023-04-19T21:04:54.393Z,1.45
2023-04-19T21:07:21.411Z,1.75
2023-04-19T21:09:48.451Z,1.98
2023-04-19T21:12:15.350Z,1.67
2023-04-19T21:14:42.340Z,1.88
2023-04-19T21:17:09.252Z,1.73
2023-04-19T21:19:37.368Z,1.77
2023-04-19T21:22:04.266Z,1.38
2023-04-19T21:24:31.233Z,1.65
2023-04-19T21:26:58.230Z,1.50
2023-04-19T21:29:25.324Z,1.60
2023-04-19T21:31:52.259Z,1.88
2023-04-19T21:34:19.282Z,1.50
2023-04-19T21:36:46.301Z,1.73
2023-04-19T21:39:13.279Z,1.20
2023-04-19T21:41:41.445Z,1.55
2023-04-19T21:44:08.453Z,1.40
2023-04-19T21:46:35.795Z,1.30
2023-04-19T21:49:02.827Z,1.88
2023-04-19T21:51:29.764Z,2.30
2023-04-19T21:53:56.749Z,1.77
2023-04-19T21:56:23.682Z,1.58
2023-04-19T21:58:50.698Z,2.00
2023-04-19T22:01:17.676Z,1.40
2023-04-19T22:03:45.586Z,1.50
2023-04-19T22:06:13.933Z,1.50
2023-04-19T22:08:42.384Z,1.63
2023-04-19T22:11:09.284Z,1.45
2023-04-19T22:13:37.376Z,1.50
2023-04-19T22:16:04.756Z,1.52
2023-04-19T22:18:34.192Z,1.48
2023-04-19T22:21:01.573Z,2.05
2023-04-19T22:23:28.557Z,1.30
2023-04-19T22:25:55.540Z,1.42
2023-04-19T22:28:22.486Z,1.00
2023-04-19T22:30:51.093Z,1.77
2023-04-19T22:33:18.868Z,1.05
2023-04-19T22:35:45.871Z,1.30
2023-04-19T22:38:13.295Z,1.27
2023-04-19T22:40:40.387Z,1.33
2023-04-19T22:43:07.278Z,1.20
2023-04-19T22:45:34.183Z,1.30
2023-04-19T22:48:01.647Z,1.63
2023-04-19T22:50:28.684Z,1.27
2023-04-19T22:52:55.635Z,1.67
2023-04-19T22:55:22.686Z,1.35
2023-04-19T22:57:49.632Z,1.02
2023-04-19T23:00:18.000Z,1.45
2023-04-19T23:02:45.032Z,1.20
2023-04-19T23:05:12.206Z,1.27
2023-04-19T23:07:41.867Z,1.48
2023-04-19T23:10:10.267Z,1.33
2023-04-19T23:12:38.770Z,1.42
2023-04-19T23:15:07.655Z,1.75
2023-04-19T23:17:34.709Z,1.30
2023-04-19T23:20:01.802Z,1.42
2023-04-19T23:22:28.867Z,1.30
2023-04-19T23:24:56.026Z,1.30
2023-04-19T23:27:22.945Z,1.75
2023-04-19T23:29:49.925Z,1.30
2023-04-19T23:32:18.189Z,1.30
2023-04-19T23:34:45.376Z,1.73
2023-04-19T23:37:13.599Z,1.23
2023-04-19T23:39:40.691Z,1.85
2023-04-19T23:42:07.644Z,1.48
2023-04-19T23:44:34.658Z,1.48
2023-04-19T23:47:04.552Z,1.42
2023-04-19T23:49:32.061Z,1.25
2023-04-19T23:51:59.002Z,1.42
2023-04-19T23:54:26.344Z,1.67
2023-04-19T23:56:53.636Z,1.00
2023-04-19T23:59:20.779Z,1.65
